createdAt,value
2019-06-07T00:00:39.922Z,13.90
2019-06-07T00:03:10.714Z,13.88
2019-06-07T00:05:37.832Z,13.85
2019-06-07T00:08:10.836Z,13.83
2019-06-07T00:10:37.295Z,13.80
2019-06-07T00:13:06.896Z,13.76
2019-06-07T00:15:35.393Z,13.72
2019-06-07T00:18:03.843Z,13.69
2019-06-07T00:20:33.070Z,13.63
2019-06-07T00:23:01.411Z,13.56
2019-06-07T00:25:29.829Z,13.54
2019-06-07T00:27:58.209Z,13.54
2019-06-07T00:30:42.348Z,13.53
2019-06-07T00:32:57.730Z,13.50
2019-06-07T00:35:26.148Z,13.48
2019-06-07T00:37:54.486Z,13.45
2019-06-07T00:40:31.344Z,13.42
2019-06-07T00:42:53.090Z,13.38
2019-06-07T00:45:23.971Z,13.37
2019-06-07T00:47:51.577Z,13.35
2019-06-07T00:50:23.947Z,13.36
2019-06-07T00:55:27.058Z,13.30
2019-06-07T00:57:50.870Z,13.20
2019-06-07T01:00:23.565Z,13.11
2019-06-07T01:02:50.848Z,13.05
2019-06-07T01:05:22.590Z,12.99
2019-06-07T01:07:49.175Z,12.95
2019-06-07T01:10:46.038Z,12.90
2019-06-07T01:12:47.944Z,12.82
2019-06-07T01:15:18.190Z,12.79
2019-06-07T01:18:25.882Z,12.77
2019-06-07T01:20:21.181Z,12.74
2019-06-07T01:22:47.581Z,12.73
2019-06-07T01:25:18.331Z,12.74
2019-06-07T01:27:46.802Z,12.72
2019-06-07T01:30:16.190Z,12.71
2019-06-07T01:32:44.704Z,12.67
2019-06-07T01:35:13.114Z,12.63
2019-06-07T01:37:41.451Z,12.59
2019-06-07T01:40:10.015Z,12.58
2019-06-07T01:42:38.362Z,12.54
2019-06-07T01:45:08.585Z,12.52
2019-06-07T01:47:36.954Z,12.50
2019-06-07T01:50:08.209Z,12.47
2019-06-07T01:52:36.614Z,12.46
2019-06-07T01:55:06.545Z,12.44
2019-06-07T01:57:47.691Z,12.41
2019-06-07T02:00:06.578Z,12.42
2019-06-07T02:02:35.253Z,12.43
2019-06-07T02:05:04.763Z,12.42
2019-06-07T02:07:33.458Z,12.41
2019-06-07T02:10:01.798Z,12.40
2019-06-07T02:12:40.323Z,12.38
2019-06-07T02:15:00.326Z,12.34
2019-06-07T02:17:30.941Z,12.33
2019-06-07T02:19:58.777Z,12.31
2019-06-07T02:22:29.464Z,12.31
2019-06-07T02:25:34.379Z,12.28
2019-06-07T02:27:27.542Z,12.27
2019-06-07T02:29:56.320Z,12.26
2019-06-07T02:32:28.853Z,12.24
2019-06-07T02:34:54.697Z,12.22
2019-06-07T02:37:26.399Z,12.19
2019-06-07T02:39:53.270Z,12.19
2019-06-07T02:42:26.150Z,12.17
2019-06-07T02:44:51.599Z,12.15
2019-06-07T02:47:20.027Z,12.12
2019-06-07T02:49:48.323Z,12.10
2019-06-07T02:52:16.727Z,12.07
2019-06-07T02:54:45.040Z,12.04
2019-06-07T02:57:13.354Z,12.02
2019-06-07T03:00:05.203Z,12.01
2019-06-07T03:02:11.754Z,12.00
2019-06-07T03:04:43.940Z,11.97
2019-06-07T03:07:10.990Z,11.96
2019-06-07T03:09:39.966Z,11.93
2019-06-07T03:12:08.589Z,11.91
2019-06-07T03:14:36.887Z,11.88
2019-06-07T03:17:10.061Z,11.86
2019-06-07T03:19:40.134Z,11.83
2019-06-07T03:22:08.498Z,11.81
2019-06-07T03:24:41.126Z,11.78
2019-06-07T03:29:36.951Z,11.76
2019-06-07T03:32:05.296Z,11.73
2019-06-07T03:34:39.272Z,11.74
2019-06-07T03:37:03.645Z,11.71
2019-06-07T03:39:33.763Z,11.72
2019-06-07T03:42:06.485Z,11.71
2019-06-07T03:44:37.806Z,11.72
2019-06-07T03:47:05.531Z,11.73
2019-06-07T03:49:37.475Z,11.74
2019-06-07T03:52:04.005Z,11.76
2019-06-07T03:54:34.856Z,11.80
2019-06-07T03:57:02.316Z,11.80
2019-06-07T03:59:35.547Z,11.85
2019-06-07T04:02:00.652Z,11.88
2019-06-07T04:04:29.789Z,11.90
2019-06-07T04:06:58.290Z,11.93
2019-06-07T04:09:28.591Z,11.96
2019-06-07T04:11:56.818Z,11.97
2019-06-07T04:14:25.171Z,11.98
2019-06-07T04:16:53.493Z,12.01
2019-06-07T04:19:21.781Z,11.97
2019-06-07T04:21:51.024Z,12.00
2019-06-07T04:24:19.304Z,12.03
2019-06-07T04:26:48.261Z,12.04
2019-06-07T04:29:37.990Z,12.06
2019-06-07T04:31:46.700Z,12.09
2019-06-07T04:34:15.008Z,12.12
2019-06-07T04:36:56.683Z,12.16
2019-06-07T04:39:13.771Z,12.23
2019-06-07T04:41:42.114Z,12.28
2019-06-07T04:44:10.401Z,12.36
2019-06-07T04:46:42.163Z,12.41
2019-06-07T04:49:09.066Z,12.47
2019-06-07T04:51:42.083Z,12.55
2019-06-07T04:54:07.399Z,12.61
2019-06-07T04:56:38.517Z,12.68
2019-06-07T04:59:06.019Z,12.74
2019-06-07T05:01:36.760Z,12.81
2019-06-07T05:04:04.630Z,12.85
2019-06-07T05:06:36.319Z,12.91
2019-06-07T05:09:03.144Z,12.98
2019-06-07T05:11:32.062Z,13.04
2019-06-07T05:14:01.554Z,13.12
2019-06-07T05:16:30.500Z,13.20
2019-06-07T05:19:00.046Z,13.29
2019-06-07T05:21:49.369Z,13.39
2019-06-07T05:24:09.280Z,13.48
2019-06-07T05:26:30.406Z,13.54
2019-06-07T05:28:58.670Z,13.61
2019-06-07T05:31:27.055Z,13.71
2019-06-07T05:33:55.625Z,13.79
2019-06-07T05:36:24.103Z,13.91
2019-06-07T05:38:52.472Z,13.97
2019-06-07T05:41:20.867Z,14.08
2019-06-07T05:44:09.120Z,14.16
2019-06-07T05:46:19.322Z,14.28
2019-06-07T05:48:47.665Z,14.39
2019-06-07T05:51:16.015Z,14.51
2019-06-07T05:53:46.011Z,14.63
2019-06-07T05:56:15.390Z,14.79
2019-06-07T05:58:44.745Z,14.94
2019-06-07T06:01:42.136Z,15.12
2019-06-07T06:03:46.441Z,15.21
2019-06-07T06:06:13.348Z,15.37
2019-06-07T06:08:42.532Z,15.45
2019-06-07T06:11:12.477Z,15.57
2019-06-07T06:14:01.555Z,15.68
2019-06-07T06:16:10.815Z,15.78
2019-06-07T06:18:40.729Z,15.86
2019-06-07T06:21:18.924Z,15.96
2019-06-07T06:23:42.422Z,16.03
2019-06-07T06:26:09.750Z,16.19
2019-06-07T06:28:38.348Z,16.34
2019-06-07T06:31:06.775Z,16.51
2019-06-07T06:33:35.196Z,16.59
2019-06-07T06:36:03.531Z,16.71
2019-06-07T06:38:31.854Z,16.89
2019-06-07T06:41:15.487Z,17.06
2019-06-07T06:43:30.783Z,17.23
2019-06-07T06:45:59.105Z,17.39
2019-06-07T06:48:27.476Z,17.49
2019-06-07T06:50:55.861Z,17.60
2019-06-07T06:53:24.338Z,17.75
2019-06-07T06:55:52.758Z,17.91
2019-06-07T06:58:21.094Z,17.99
2019-06-07T07:01:04.871Z,18.13
2019-06-07T07:03:54.210Z,18.31
2019-06-07T07:05:54.415Z,18.41
2019-06-07T07:08:21.309Z,18.52
2019-06-07T07:10:53.205Z,18.68
2019-06-07T07:13:19.906Z,18.82
2019-06-07T07:15:55.083Z,18.89
2019-06-07T07:18:18.329Z,18.98
2019-06-07T07:20:48.344Z,19.14
2019-06-07T07:23:17.387Z,19.20
2019-06-07T07:25:51.070Z,19.23
2019-06-07T07:28:15.891Z,19.36
2019-06-07T07:30:47.287Z,19.39
2019-06-07T07:33:16.851Z,19.46
2019-06-07T07:36:08.104Z,19.49
2019-06-07T07:38:15.250Z,19.53
2019-06-07T07:43:13.554Z,19.73
2019-06-07T07:45:41.965Z,19.82
2019-06-07T07:48:17.561Z,20.01
2019-06-07T07:50:41.358Z,20.19
2019-06-07T07:53:09.808Z,20.32
2019-06-07T07:55:38.185Z,20.32
2019-06-07T07:58:06.475Z,20.35
2019-06-07T08:00:52.547Z,20.41
2019-06-07T08:03:04.866Z,20.41
2019-06-07T08:05:42.634Z,20.44
2019-06-07T08:08:04.961Z,20.41
2019-06-07T08:10:33.183Z,20.52
2019-06-07T08:13:22.721Z,20.61
2019-06-07T08:15:31.538Z,20.62
2019-06-07T08:18:03.934Z,20.65
2019-06-07T08:20:29.906Z,20.70
2019-06-07T08:23:00.900Z,20.65
2019-06-07T08:25:29.135Z,20.64
2019-06-07T08:27:58.989Z,20.55
2019-06-07T08:33:12.058Z,20.67
2019-06-07T08:36:03.634Z,20.56
2019-06-07T08:40:27.873Z,20.72
2019-06-07T08:43:18.332Z,20.82
2019-06-07T08:45:26.357Z,20.85
2019-06-07T08:47:58.014Z,20.78
2019-06-07T08:50:24.701Z,20.73
2019-06-07T08:52:59.434Z,20.68
2019-06-07T08:55:23.256Z,20.69
2019-06-07T08:57:54.521Z,20.80
2019-06-07T09:00:45.337Z,20.87
2019-06-07T09:02:54.966Z,21.01
2019-06-07T09:05:23.111Z,20.99
2019-06-07T09:08:12.995Z,21.11
2019-06-07T09:10:21.397Z,21.33
2019-06-07T09:12:49.721Z,21.52
2019-06-07T09:15:23.425Z,21.63
2019-06-07T09:18:30.519Z,21.60
2019-06-07T09:20:35.568Z,21.56
2019-06-07T09:22:48.197Z,21.74
2019-06-07T09:25:21.242Z,21.96
2019-06-07T09:27:46.623Z,22.18
2019-06-07T09:30:18.990Z,22.29
2019-06-07T09:32:46.583Z,22.43
2019-06-07T09:35:17.500Z,22.46
2019-06-07T09:40:27.094Z,22.53
2019-06-07T09:42:48.640Z,22.43
2019-06-07T09:45:16.944Z,22.43
2019-06-07T09:47:45.336Z,22.50
2019-06-07T09:50:13.612Z,22.63
2019-06-07T09:52:57.697Z,22.79
2019-06-07T09:55:22.930Z,22.89
2019-06-07T09:57:42.340Z,22.93
2019-06-07T10:00:39.282Z,22.87
2019-06-07T10:02:45.437Z,22.84
2019-06-07T10:05:14.593Z,22.84
2019-06-07T10:08:00.084Z,23.13
2019-06-07T10:12:45.271Z,23.56
2019-06-07T10:15:13.571Z,23.78
2019-06-07T10:17:41.857Z,23.91
2019-06-07T10:20:10.233Z,23.94
2019-06-07T10:22:38.573Z,23.97
2019-06-07T10:25:08.315Z,24.04
2019-06-07T10:27:36.984Z,24.20
2019-06-07T10:30:08.381Z,24.23
2019-06-07T10:32:36.728Z,24.48
2019-06-07T10:35:10.170Z,24.58
2019-06-07T10:37:38.463Z,24.57
2019-06-07T10:40:09.307Z,24.76
2019-06-07T10:42:37.697Z,24.88
2019-06-07T10:45:08.262Z,24.70
2019-06-07T10:47:36.791Z,24.85
2019-06-07T10:50:05.967Z,24.94
2019-06-07T10:52:34.525Z,24.79
2019-06-07T10:55:03.001Z,24.65
2019-06-07T10:57:31.287Z,24.52
2019-06-07T10:59:59.796Z,24.35
2019-06-07T11:02:28.143Z,24.36
2019-06-07T11:04:56.513Z,24.37
2019-06-07T11:07:24.850Z,24.43
2019-06-07T11:10:06.250Z,24.57
2019-06-07T11:12:23.336Z,24.89
2019-06-07T11:14:51.673Z,24.76
2019-06-07T11:17:19.958Z,24.77
2019-06-07T11:19:48.979Z,24.76
2019-06-07T11:22:18.557Z,24.59
2019-06-07T11:24:47.234Z,24.56
2019-06-07T11:27:16.415Z,24.72
2019-06-07T11:29:45.806Z,25.15
2019-06-07T11:32:14.632Z,25.13
2019-06-07T11:34:43.015Z,25.32
2019-06-07T11:37:12.037Z,25.46
2019-06-07T11:39:41.439Z,25.60
2019-06-07T11:42:09.963Z,25.81
2019-06-07T11:44:53.202Z,25.62
2019-06-07T11:47:08.477Z,25.46
2019-06-07T11:49:36.754Z,25.49
2019-06-07T11:52:05.058Z,25.48
2019-06-07T11:54:33.461Z,25.24
2019-06-07T11:57:01.761Z,25.24
2019-06-07T11:59:30.075Z,25.25
2019-06-07T12:01:58.555Z,25.17
2019-06-07T12:04:34.529Z,25.41
2019-06-07T12:06:57.010Z,25.41
2019-06-07T12:09:28.063Z,25.81
2019-06-07T12:11:55.273Z,26.10
2019-06-07T12:14:23.638Z,26.28
2019-06-07T12:16:51.952Z,26.32
2019-06-07T12:19:20.587Z,26.50
2019-06-07T12:21:49.010Z,26.61
2019-06-07T12:24:19.390Z,26.64
2019-06-07T12:26:47.365Z,26.68
2019-06-07T12:29:17.185Z,26.89
2019-06-07T12:31:45.597Z,26.85
2019-06-07T12:34:13.869Z,26.76
2019-06-07T12:36:43.837Z,26.73
2019-06-07T12:39:12.168Z,26.74
2019-06-07T12:41:40.439Z,26.69
2019-06-07T12:44:08.881Z,26.69
2019-06-07T12:46:37.135Z,26.83
2019-06-07T12:49:05.414Z,27.11
2019-06-07T12:51:33.818Z,27.24
2019-06-07T12:54:02.146Z,27.37
2019-06-07T12:56:30.426Z,27.59
2019-06-07T12:58:58.754Z,27.43
2019-06-07T13:01:27.166Z,27.09
2019-06-07T13:03:55.451Z,26.82
2019-06-07T13:06:23.781Z,26.76
2019-06-07T13:08:52.035Z,26.94
2019-06-07T13:11:26.158Z,27.07
2019-06-07T13:13:50.578Z,27.16
2019-06-07T13:16:19.982Z,26.83
2019-06-07T13:18:48.346Z,26.80
2019-06-07T13:21:18.219Z,26.91
2019-06-07T13:23:46.618Z,27.06
2019-06-07T13:26:16.749Z,27.24
2019-06-07T13:28:45.044Z,27.34
2019-06-07T13:31:13.363Z,27.54
2019-06-07T13:33:41.699Z,27.53
2019-06-07T13:36:10.120Z,27.41
2019-06-07T13:38:38.407Z,27.46
2019-06-07T13:41:06.723Z,27.54
2019-06-07T13:43:35.033Z,27.72
2019-06-07T13:46:03.336Z,27.83
2019-06-07T13:48:32.784Z,27.80
2019-06-07T13:51:01.172Z,27.56
2019-06-07T13:53:29.501Z,27.29
2019-06-07T13:55:57.929Z,27.35
2019-06-07T13:58:26.716Z,27.49
2019-06-07T14:00:54.993Z,27.73
2019-06-07T14:03:28.348Z,27.82
2019-06-07T14:05:53.330Z,28.00
2019-06-07T14:08:23.158Z,27.91
2019-06-07T14:10:51.578Z,28.07
2019-06-07T14:13:19.941Z,27.97
2019-06-07T14:15:48.379Z,27.80
2019-06-07T14:18:16.664Z,27.49
2019-06-07T14:20:44.953Z,27.43
2019-06-07T14:23:13.371Z,27.34
2019-06-07T14:25:41.784Z,27.17
2019-06-07T14:28:11.973Z,27.11
2019-06-07T14:30:40.561Z,27.03
2019-06-07T14:33:08.887Z,26.96
2019-06-07T14:35:37.307Z,27.13
2019-06-07T14:38:05.604Z,27.23
2019-06-07T14:40:34.159Z,27.48
2019-06-07T14:43:02.654Z,27.73
2019-06-07T14:45:32.796Z,27.90
2019-06-07T14:48:01.066Z,27.94
2019-06-07T14:50:30.250Z,28.11
2019-06-07T14:52:58.728Z,28.25
2019-06-07T14:55:27.113Z,28.36
2019-06-07T14:57:55.520Z,28.40
2019-06-07T15:00:41.159Z,28.49
2019-06-07T15:03:09.893Z,28.64
2019-06-07T15:05:40.480Z,28.79
2019-06-07T15:08:08.374Z,28.60
2019-06-07T15:10:36.767Z,28.41
2019-06-07T15:13:05.129Z,28.12
2019-06-07T15:15:34.591Z,28.03
2019-06-07T15:18:03.071Z,28.07
2019-06-07T15:20:32.188Z,28.18
2019-06-07T15:23:00.570Z,28.30
2019-06-07T15:25:29.208Z,28.22
2019-06-07T15:27:57.556Z,28.05
2019-06-07T15:30:25.908Z,27.69
2019-06-07T15:32:54.285Z,27.58
2019-06-07T15:35:22.776Z,27.43
2019-06-07T15:37:51.058Z,27.34
2019-06-07T15:40:19.479Z,27.28
2019-06-07T15:42:52.842Z,27.21
2019-06-07T15:45:18.508Z,27.04
2019-06-07T15:47:46.873Z,26.92
2019-06-07T15:50:15.270Z,26.93
2019-06-07T15:52:43.574Z,26.88
2019-06-07T15:55:12.002Z,26.82
2019-06-07T15:57:42.056Z,26.80
2019-06-07T16:00:19.519Z,26.84
2019-06-07T16:02:47.960Z,26.87
2019-06-07T16:05:16.441Z,26.81
2019-06-07T16:07:44.967Z,26.73
2019-06-07T16:10:14.805Z,26.66
2019-06-07T16:12:59.250Z,26.49
2019-06-07T16:15:13.895Z,26.39
2019-06-07T16:17:43.775Z,26.27
2019-06-07T16:20:13.367Z,26.32
2019-06-07T16:22:42.067Z,26.45
2019-06-07T16:25:10.655Z,26.62
2019-06-07T16:27:40.462Z,26.71
2019-06-07T16:30:10.071Z,26.79
2019-06-07T16:32:39.345Z,26.73
2019-06-07T16:35:08.323Z,26.67
2019-06-07T16:37:38.193Z,26.62
2019-06-07T16:40:07.793Z,26.70
2019-06-07T16:42:36.363Z,26.71
2019-06-07T16:45:11.350Z,26.68
2019-06-07T16:47:42.394Z,26.57
2019-06-07T16:50:10.459Z,26.34
2019-06-07T16:52:39.177Z,26.29
2019-06-07T16:55:08.306Z,26.15
2019-06-07T16:57:36.759Z,26.17
2019-06-07T17:00:13.303Z,26.16
2019-06-07T17:02:42.211Z,26.06
2019-06-07T17:05:10.806Z,26.09
2019-06-07T17:07:40.230Z,26.02
2019-06-07T17:10:09.143Z,25.96
2019-06-07T17:12:38.519Z,25.83
2019-06-07T17:15:07.693Z,25.73
2019-06-07T17:17:36.014Z,25.55
2019-06-07T17:20:06.022Z,25.30
2019-06-07T17:22:34.302Z,25.23
2019-06-07T17:25:02.658Z,25.13
2019-06-07T17:27:31.108Z,25.04
2019-06-07T17:29:59.540Z,24.90
2019-06-07T17:32:27.821Z,24.82
2019-06-07T17:34:56.101Z,24.70
2019-06-07T17:37:25.225Z,24.57
2019-06-07T17:39:53.513Z,24.14
2019-06-07T17:42:21.823Z,23.28
2019-06-07T17:44:51.355Z,22.40
2019-06-07T17:47:19.797Z,21.68
2019-06-07T17:49:48.220Z,21.34
2019-06-07T17:52:16.577Z,20.96
2019-06-07T17:54:45.924Z,20.53
2019-06-07T17:57:14.342Z,20.18
2019-06-07T17:59:42.696Z,19.84
2019-06-07T18:02:15.378Z,19.67
2019-06-07T18:04:43.050Z,19.51
2019-06-07T18:07:11.883Z,19.34
2019-06-07T18:09:40.165Z,19.31
2019-06-07T18:12:08.607Z,19.32
2019-06-07T18:14:36.988Z,19.23
2019-06-07T18:17:05.403Z,19.12
2019-06-07T18:19:33.786Z,19.11
2019-06-07T18:22:02.099Z,19.03
2019-06-07T18:24:30.394Z,19.02
2019-06-07T18:26:58.953Z,18.95
2019-06-07T18:29:27.219Z,18.94
2019-06-07T18:31:55.514Z,18.89
2019-06-07T18:34:23.933Z,18.85
2019-06-07T18:36:53.139Z,18.76
2019-06-07T18:39:21.704Z,18.74
2019-06-07T18:41:51.817Z,18.74
2019-06-07T18:44:21.877Z,18.71
2019-06-07T18:46:50.179Z,18.65
2019-06-07T18:49:18.485Z,18.67
2019-06-07T18:51:49.651Z,18.64
2019-06-07T18:54:18.087Z,18.60
2019-06-07T18:56:47.064Z,18.57
2019-06-07T18:59:15.391Z,18.54
2019-06-07T19:01:43.672Z,18.48
2019-06-07T19:04:12.866Z,18.38
2019-06-07T19:06:41.187Z,18.37
2019-06-07T19:09:09.607Z,18.40
2019-06-07T19:11:37.901Z,18.39
2019-06-07T19:14:06.183Z,18.35
2019-06-07T19:16:35.165Z,18.33
2019-06-07T19:19:03.756Z,18.33
2019-06-07T19:21:32.491Z,18.37
2019-06-07T19:24:00.871Z,18.38
2019-06-07T19:26:29.159Z,18.43
2019-06-07T19:28:57.468Z,18.48
2019-06-07T19:31:25.756Z,18.42
2019-06-07T19:33:55.104Z,18.30
2019-06-07T19:36:23.438Z,18.25
2019-06-07T19:38:51.840Z,18.18
2019-06-07T19:41:20.807Z,18.15
2019-06-07T19:43:49.222Z,18.13
2019-06-07T19:46:17.658Z,18.08
2019-06-07T19:48:46.052Z,18.07
2019-06-07T19:51:16.001Z,18.08
2019-06-07T19:53:44.290Z,18.08
2019-06-07T19:56:12.634Z,17.94
2019-06-07T19:58:40.923Z,17.85
2019-06-07T20:01:09.216Z,17.75
2019-06-07T20:03:38.109Z,17.66
2019-06-07T20:06:06.437Z,17.61
2019-06-07T20:08:34.993Z,17.59
2019-06-07T20:11:04.744Z,17.60
2019-06-07T20:13:33.371Z,17.59
2019-06-07T20:16:02.934Z,17.64
2019-06-07T20:18:31.460Z,17.68
2019-06-07T20:21:00.675Z,17.69
2019-06-07T20:23:29.225Z,17.68
2019-06-07T20:25:57.568Z,17.65
2019-06-07T20:28:25.948Z,17.56
2019-06-07T20:30:54.229Z,17.48
2019-06-07T20:33:22.529Z,17.39
2019-06-07T20:35:50.840Z,17.30
2019-06-07T20:38:19.126Z,17.16
2019-06-07T20:40:47.604Z,17.01
2019-06-07T20:43:15.909Z,16.95
2019-06-07T20:45:44.271Z,16.92
2019-06-07T20:48:12.572Z,16.90
2019-06-07T20:50:40.882Z,16.87
2019-06-07T20:53:09.634Z,16.85
2019-06-07T20:55:38.049Z,16.81
2019-06-07T20:58:07.275Z,16.81
2019-06-07T21:00:35.792Z,16.79
2019-06-07T21:03:05.335Z,16.72
2019-06-07T21:05:34.024Z,16.68
2019-06-07T21:08:04.177Z,16.58
2019-06-07T21:10:32.564Z,16.49
2019-06-07T21:13:01.971Z,16.37
2019-06-07T21:15:30.362Z,16.34
2019-06-07T21:18:00.168Z,16.28
2019-06-07T21:20:28.555Z,16.22
2019-06-07T21:22:56.850Z,16.16
2019-06-07T21:25:25.182Z,16.18
2019-06-07T21:27:55.543Z,16.15
2019-06-07T21:30:23.919Z,16.16
2019-06-07T21:32:52.431Z,16.16
2019-06-07T21:35:20.719Z,16.14
2019-06-07T21:37:49.026Z,16.17
2019-06-07T21:40:17.338Z,16.13
2019-06-07T21:42:45.614Z,16.13
2019-06-07T21:45:14.798Z,16.10
2019-06-07T21:47:43.091Z,16.13
2019-06-07T21:50:12.756Z,16.14
2019-06-07T21:52:41.309Z,16.11
2019-06-07T21:55:11.536Z,16.08
2019-06-07T21:57:39.849Z,16.08
2019-06-07T22:00:15.026Z,16.04
2019-06-07T22:02:43.307Z,16.00
2019-06-07T22:05:12.240Z,15.98
2019-06-07T22:07:40.583Z,15.94
2019-06-07T22:10:10.067Z,15.88
2019-06-07T22:12:38.439Z,15.84
2019-06-07T22:15:24.306Z,15.81
2019-06-07T22:17:38.309Z,15.79
2019-06-07T22:20:06.850Z,15.83
2019-06-07T22:22:35.193Z,15.82
2019-06-07T22:25:06.939Z,15.81
2019-06-07T22:27:35.450Z,15.82
2019-06-07T22:30:08.282Z,15.86
2019-06-07T22:32:37.090Z,15.87
2019-06-07T22:35:07.176Z,15.85
2019-06-07T22:37:35.753Z,15.83
2019-06-07T22:40:08.312Z,15.79
2019-06-07T22:42:37.216Z,15.79
2019-06-07T22:45:07.870Z,15.77
2019-06-07T22:47:36.635Z,15.74
2019-06-07T22:50:10.695Z,15.71
2019-06-07T22:52:39.385Z,15.64
2019-06-07T22:55:07.817Z,15.57
2019-06-07T22:57:53.913Z,15.55
2019-06-07T23:00:22.732Z,15.52
2019-06-07T23:02:51.025Z,15.49
2019-06-07T23:05:19.324Z,15.47
2019-06-07T23:07:47.637Z,15.47
2019-06-07T23:10:15.919Z,15.48
2019-06-07T23:12:44.383Z,15.50
2019-06-07T23:15:15.419Z,15.47
2019-06-07T23:17:43.844Z,15.46
2019-06-07T23:20:13.707Z,15.47
2019-06-07T23:22:42.138Z,15.48
2019-06-07T23:25:10.442Z,15.49
2019-06-07T23:27:38.876Z,15.52
2019-06-07T23:30:10.654Z,15.51
2019-06-07T23:32:39.100Z,15.48
2019-06-07T23:35:07.488Z,15.48
2019-06-07T23:37:35.788Z,15.45
2019-06-07T23:40:04.409Z,15.42
2019-06-07T23:42:32.957Z,15.40
2019-06-07T23:45:01.301Z,15.36
2019-06-07T23:47:29.583Z,15.31
2019-06-07T23:49:57.908Z,15.28
2019-06-07T23:52:26.196Z,15.26
2019-06-07T23:54:54.487Z,15.25
2019-06-07T23:57:22.799Z,15.23
2019-06-07T23:59:51.078Z,15.16
